Superior, WI

4:04 PM CDT on September 20, 2017 (GMT -0500)
Bong

Weather History for KSUW - November, 2012

Change the Weather History Date:

Friday, November 16, 2012

  Actual Average Record
Temperature  
Mean Temperature 24 °F -  
Max Temperature 37 °F 39 °F 65 °F (1953)
Min Temperature 12 °F 23 °F 0 °F (1959)
Degree Days  
Heating Degree Days 40    
Moisture  
Dew Point 18 °F    
Average Humidity 76    
Maximum Humidity 99    
Minimum Humidity 53    
Precipitation  
Precipitation 0.00 in - - ()
Sea Level Pressure  
Sea Level Pressure 30.44 in    
Wind  
Wind Speed 2 mph (East)    
Max Wind Speed 8 mph    
Max Gust Speed -    
Visibility 10 miles    
Events      
Averages and records for this station are not official NWS values.
T = Trace of Precipitation, MM = Missing Value Source: NWS Daily Summary

Daily Weather History Graph

Daily Weather History Graph

Search for Another Location

Airport or City:

Trip Planner

Search our weather history database for the weather conditions in past years. The results will help you decide how hot, cold, wet, or windy it might be!

Date:

Astronomy

Nov. 16, 2012 Rise Set
Actual Time 7:12 AM CST 4:33 PM CST
Civil Twilight 6:39 AM CST 5:06 PM CST
Nautical Twilight 6:03 AM CST 5:42 PM CST
Astronomical Twilight 5:27 AM CST 6:18 PM CST
Moon 10:11 AM CST (11/16) 7:30 PM CST (11/16)
Length of Visible Light 10h 26m
Length of Day
9h 20m
Waxing Crescent, 12% of the Moon is Illuminated
Nov 16
Waxing Crescent
Nov 20
First Quarter
Nov 28
Full
Dec 6
Last Quarter
Dec 13
New

Hourly Weather History & Observations

Time (CST) Temp. Windchill Dew Point Humidity Pressure Visibility Wind Dir Wind Speed Gust Speed Precip Events Conditions
12:15 AM 18.3 °F - 9.0 °F 67% 30.49 in 10.0 mi Calm Calm - N/A   Clear
12:35 AM 20.7 °F 15.8 °F 11.7 °F 68% 30.49 in 10.0 mi NNW 3.5 mph - N/A   Clear
12:55 AM 22.6 °F 16.5 °F 12.9 °F 66% 30.49 in 10.0 mi NNW 4.6 mph - N/A   Clear
1:15 AM 21.4 °F 16.6 °F 12.9 °F 70% 30.49 in 10.0 mi NNE 3.5 mph - N/A   Clear
1:35 AM 20.1 °F - 11.8 °F 70% 30.49 in 10.0 mi Calm Calm - N/A   Clear
1:55 AM 15.8 °F 10.2 °F 9.9 °F 77% 30.49 in 10.0 mi WSW 3.5 mph - N/A   Clear
2:15 AM 15.3 °F 9.6 °F 10.0 °F 80% 30.49 in 10.0 mi South 3.5 mph - N/A   Clear
2:35 AM 15.4 °F 9.8 °F 11.1 °F 83% 30.49 in 10.0 mi SSW 3.5 mph - N/A   Clear
2:55 AM 16.0 °F - 11.3 °F 82% 30.49 in 10.0 mi Calm Calm - N/A   Clear
3:15 AM 15.3 °F - 11.1 °F 84% 30.49 in 10.0 mi Calm Calm - N/A   Clear
3:35 AM 15.3 °F 9.6 °F 10.9 °F 83% 30.48 in 10.0 mi WSW 3.5 mph - N/A   Clear
3:55 AM 15.4 °F - 9.9 °F 79% 30.49 in 10.0 mi Calm Calm - N/A   Clear
4:15 AM 15.6 °F - 10.0 °F 79% 30.48 in 10.0 mi Calm Calm - N/A   Clear
4:35 AM 15.1 °F 9.4 °F 10.8 °F 83% 30.49 in 10.0 mi WSW 3.5 mph - N/A   Clear
4:55 AM 14.7 °F 9.0 °F 9.3 °F 79% 30.49 in 10.0 mi SSW 3.5 mph - N/A   Clear
5:15 AM 13.3 °F 7.3 °F 9.3 °F 84% 30.49 in 10.0 mi SW 3.5 mph - N/A   Clear
5:35 AM 14.2 °F 8.4 °F 10.0 °F 84% 30.49 in 10.0 mi SW 3.5 mph - N/A   Clear
5:55 AM 13.5 °F - 9.5 °F 84% 30.49 in 10.0 mi Calm Calm - N/A   Clear
6:15 AM 14.4 °F - 10.4 °F 84% 30.49 in 10.0 mi Calm Calm - N/A   Clear
6:35 AM 12.7 °F 6.7 °F 8.8 °F 84% 30.50 in 10.0 mi WSW 3.5 mph - N/A   Clear
6:55 AM 14.5 °F - 9.7 °F 81% 30.50 in 10.0 mi Calm Calm - N/A   Clear
7:15 AM 14.4 °F 8.6 °F 10.4 °F 84% 30.50 in 10.0 mi SSW 3.5 mph - N/A   Clear
7:35 AM 12.0 °F - 8.6 °F 86% 30.51 in 10.0 mi Calm Calm - N/A   Clear
7:55 AM 15.4 °F - 11.1 °F 83% 30.51 in 10.0 mi Calm Calm - N/A   Clear
8:15 AM 18.3 °F - 13.6 °F 82% 30.51 in 10.0 mi Calm Calm - N/A   Clear
8:35 AM 20.3 °F - 14.4 °F 78% 30.51 in 10.0 mi Calm Calm - N/A   Clear
8:55 AM 22.8 °F - 16.0 °F 75% 30.51 in 10.0 mi Calm Calm - N/A   Clear
9:15 AM 25.2 °F - 16.7 °F 70% 30.51 in 10.0 mi Calm Calm - N/A   Clear
9:35 AM 27.3 °F - 17.4 °F 66% 30.51 in 10.0 mi Calm Calm - N/A   Clear
9:55 AM 29.3 °F - 18.1 °F 63% 30.52 in 10.0 mi Calm Calm - N/A   Clear
10:15 AM 31.3 °F - 19.2 °F 61% 30.51 in 10.0 mi Calm Calm - N/A   Clear
10:35 AM 33.1 °F 30.0 °F 20.3 °F 59% 30.51 in 10.0 mi SE 3.5 mph - N/A   Clear
10:55 AM 33.4 °F - 20.1 °F 58% 30.50 in 10.0 mi Calm Calm - N/A   Clear
11:15 AM 35.6 °F 32.8 °F 20.8 °F 55% 30.50 in 10.0 mi SE 3.5 mph - N/A   Clear
11:35 AM 35.8 °F - 21.0 °F 55% 30.49 in 10.0 mi Calm Calm - N/A   Clear
11:55 AM 36.9 °F - 21.0 °F 53% 30.49 in 10.0 mi Calm Calm - N/A   Clear
12:15 PM 36.7 °F - 21.0 °F 53% 30.49 in 10.0 mi Calm Calm - N/A   Clear
12:35 PM 37.4 °F 32.8 °F 22.1 °F 54% 30.48 in 10.0 mi NNE 5.8 mph - N/A   Clear
12:55 PM 37.6 °F 32.3 °F 22.1 °F 54% 30.47 in 10.0 mi NNE 6.9 mph - N/A   Clear
1:15 PM 37.9 °F 33.5 °F 22.6 °F 54% 30.46 in 10.0 mi ENE 5.8 mph - N/A   Clear
1:35 PM 37.9 °F 34.4 °F 22.8 °F 55% 30.46 in 10.0 mi ENE 4.6 mph - N/A   Clear
1:55 PM 37.6 °F 33.1 °F 23.4 °F 57% 30.45 in 10.0 mi East 5.8 mph - N/A   Clear
2:15 PM 37.4 °F 31.4 °F 23.5 °F 57% 30.43 in 10.0 mi East 8.1 mph - N/A   Clear
2:35 PM 36.9 °F 30.7 °F 24.6 °F 61% 30.42 in 10.0 mi East 8.1 mph - N/A   Clear
2:55 PM 36.9 °F 31.4 °F 25.3 °F 63% 30.41 in 10.0 mi East 6.9 mph - N/A   Clear
3:15 PM 36.5 °F 31.0 °F 25.3 °F 64% 30.39 in 10.0 mi East 6.9 mph - N/A   Clear
3:35 PM 35.6 °F 29.2 °F 25.9 °F 68% 30.39 in 10.0 mi East 8.1 mph - N/A   Clear
3:55 PM 35.1 °F 32.2 °F 26.1 °F 70% 30.40 in 10.0 mi ENE 3.5 mph - N/A   Clear
4:15 PM 34.3 °F 27.7 °F 26.4 °F 73% 30.39 in 10.0 mi East 8.1 mph - N/A   Clear
4:35 PM 33.8 °F 29.6 °F 26.6 °F 75% 30.39 in 10.0 mi NE 4.6 mph - N/A   Clear
4:55 PM 32.9 °F 25.9 °F 26.6 °F 78% 30.39 in 10.0 mi East 8.1 mph - N/A   Clear
5:15 PM 32.9 °F 28.5 °F 27.1 °F 79% 30.39 in 10.0 mi ENE 4.6 mph - N/A   Clear
5:35 PM 32.2 °F 27.7 °F 27.5 °F 83% 30.39 in 10.0 mi ENE 4.6 mph - N/A   Clear
5:55 PM 32.2 °F 27.7 °F 27.7 °F 83% 30.38 in 10.0 mi East 4.6 mph - N/A   Clear
6:15 PM 30.6 °F - 27.1 °F 87% 30.38 in 10.0 mi Calm Calm - N/A   Clear
6:35 PM 30.0 °F - 26.2 °F 86% 30.37 in 10.0 mi Calm Calm - N/A   Clear
6:55 PM 27.1 °F 23.2 °F 25.2 °F 92% 30.36 in 10.0 mi ESE 3.5 mph - N/A   Clear
7:15 PM 27.0 °F - 25.5 °F 94% 30.36 in 10.0 mi Calm Calm - N/A   Clear
7:55 PM 23.9 °F - 21.9 °F 92% 30.36 in 10.0 mi Calm Calm - N/A   Clear
8:15 PM 22.6 °F - 21.4 °F 95% 30.36 in 10.0 mi Calm Calm - N/A   Clear
8:35 PM 21.4 °F - 20.5 °F 96% 30.35 in 10.0 mi Calm Calm - N/A   Clear
8:55 PM 21.4 °F - 21.2 °F 99% 30.36 in 10.0 mi Calm Calm - N/A   Clear
9:15 PM 18.1 °F - 16.0 °F 91% 30.35 in 10.0 mi Calm Calm - N/A   Clear
9:55 PM 19.8 °F - 18.1 °F 93% 30.34 in 10.0 mi Calm Calm - N/A   Clear
10:15 PM 18.7 °F 13.5 °F 17.4 °F 95% 30.34 in 10.0 mi East 3.5 mph - N/A   Clear
10:35 PM 19.8 °F - 18.5 °F 95% 30.34 in 10.0 mi Calm Calm - N/A   Scattered Clouds
10:55 PM 20.5 °F - 19.2 °F 95% 30.34 in 10.0 mi Calm Calm - N/A   Mostly Cloudy
11:15 PM 23.2 °F - 18.7 °F 83% 30.34 in 10.0 mi Calm Calm - N/A   Overcast
11:35 PM 25.7 °F - 20.3 °F 80% 30.34 in 10.0 mi Calm Calm - N/A   Overcast
11:55 PM 25.0 °F - 19.6 °F 80% 30.34 in 10.0 mi Calm Calm - N/A   Scattered Clouds